sensor_id;sensor_type;location;lat;lon;timestamp;P1;durP1;ratioP1;P2;durP2;ratioP2
23338;SDS011;11841;49.368;20.962;2023-10-31T00:02:14;9.23;;;2.60;;
23338;SDS011;11841;49.368;20.962;2023-10-31T00:04:59;6.00;;;2.45;;
23338;SDS011;11841;49.368;20.962;2023-10-31T00:07:45;3.95;;;2.30;;
23338;SDS011;11841;49.368;20.962;2023-10-31T00:10:30;9.27;;;2.92;;
23338;SDS011;11841;49.368;20.962;2023-10-31T00:13:15;5.18;;;2.75;;
23338;SDS011;11841;49.368;20.962;2023-10-31T00:16:01;7.65;;;2.35;;
23338;SDS011;11841;49.368;20.962;2023-10-31T00:18:46;6.72;;;2.25;;
23338;SDS011;11841;49.368;20.962;2023-10-31T00:21:31;4.78;;;1.90;;
23338;SDS011;11841;49.368;20.962;2023-10-31T00:24:17;6.50;;;2.10;;
23338;SDS011;11841;49.368;20.962;2023-10-31T00:27:02;8.60;;;3.22;;
23338;SDS011;11841;49.368;20.962;2023-10-31T00:29:48;6.97;;;2.33;;
23338;SDS011;11841;49.368;20.962;2023-10-31T00:32:33;10.13;;;2.20;;
23338;SDS011;11841;49.368;20.962;2023-10-31T00:35:19;7.65;;;3.17;;
23338;SDS011;11841;49.368;20.962;2023-10-31T00:38:04;7.68;;;3.20;;
23338;SDS011;11841;49.368;20.962;2023-10-31T00:40:49;8.25;;;3.28;;
23338;SDS011;11841;49.368;20.962;2023-10-31T00:43:35;14.63;;;2.55;;
23338;SDS011;11841;49.368;20.962;2023-10-31T00:46:20;11.80;;;3.50;;
23338;SDS011;11841;49.368;20.962;2023-10-31T00:49:05;9.73;;;2.42;;
23338;SDS011;11841;49.368;20.962;2023-10-31T00:51:51;6.63;;;2.38;;
23338;SDS011;11841;49.368;20.962;2023-10-31T00:54:37;6.30;;;2.53;;
23338;SDS011;11841;49.368;20.962;2023-10-31T00:57:22;11.50;;;3.13;;
23338;SDS011;11841;49.368;20.962;2023-10-31T01:00:07;9.20;;;3.88;;
23338;SDS011;11841;49.368;20.962;2023-10-31T01:02:55;9.75;;;3.65;;
23338;SDS011;11841;49.368;20.962;2023-10-31T01:05:41;9.07;;;2.33;;
23338;SDS011;11841;49.368;20.962;2023-10-31T01:08:26;12.27;;;6.20;;
23338;SDS011;11841;49.368;20.962;2023-10-31T01:11:12;9.25;;;2.88;;
23338;SDS011;11841;49.368;20.962;2023-10-31T01:13:57;13.05;;;3.20;;
23338;SDS011;11841;49.368;20.962;2023-10-31T01:16:42;10.02;;;3.10;;
23338;SDS011;11841;49.368;20.962;2023-10-31T01:19:28;5.63;;;2.90;;
23338;SDS011;11841;49.368;20.962;2023-10-31T01:22:13;8.45;;;3.75;;
23338;SDS011;11841;49.368;20.962;2023-10-31T01:24:59;8.18;;;3.03;;
23338;SDS011;11841;49.368;20.962;2023-10-31T01:27:44;15.63;;;2.50;;
23338;SDS011;11841;49.368;20.962;2023-10-31T01:30:29;4.43;;;2.70;;
23338;SDS011;11841;49.368;20.962;2023-10-31T01:33:15;11.45;;;2.75;;
23338;SDS011;11841;49.368;20.962;2023-10-31T01:36:01;17.13;;;3.53;;
23338;SDS011;11841;49.368;20.962;2023-10-31T01:38:46;8.43;;;3.58;;
23338;SDS011;11841;49.368;20.962;2023-10-31T01:41:31;7.55;;;2.83;;
23338;SDS011;11841;49.368;20.962;2023-10-31T01:44:17;15.55;;;3.10;;
23338;SDS011;11841;49.368;20.962;2023-10-31T01:47:02;7.05;;;3.15;;
23338;SDS011;11841;49.368;20.962;2023-10-31T01:49:48;8.95;;;3.65;;
23338;SDS011;11841;49.368;20.962;2023-10-31T01:52:33;5.32;;;2.83;;
23338;SDS011;11841;49.368;20.962;2023-10-31T01:55:20;10.98;;;3.40;;
23338;SDS011;11841;49.368;20.962;2023-10-31T01:58:07;16.02;;;3.45;;
23338;SDS011;11841;49.368;20.962;2023-10-31T02:00:53;10.23;;;3.70;;
23338;SDS011;11841;49.368;20.962;2023-10-31T02:03:40;9.20;;;3.22;;
23338;SDS011;11841;49.368;20.962;2023-10-31T02:06:25;6.13;;;3.05;;
23338;SDS011;11841;49.368;20.962;2023-10-31T02:09:11;9.65;;;3.78;;
23338;SDS011;11841;49.368;20.962;2023-10-31T02:11:56;7.30;;;3.90;;
23338;SDS011;11841;49.368;20.962;2023-10-31T02:14:42;14.82;;;3.95;;
23338;SDS011;11841;49.368;20.962;2023-10-31T02:17:27;8.98;;;3.35;;
23338;SDS011;11841;49.368;20.962;2023-10-31T02:20:12;14.68;;;3.53;;
23338;SDS011;11841;49.368;20.962;2023-10-31T02:22:58;4.57;;;3.17;;
23338;SDS011;11841;49.368;20.962;2023-10-31T02:25:44;10.00;;;3.33;;
23338;SDS011;11841;49.368;20.962;2023-10-31T02:28:29;11.23;;;3.47;;
23338;SDS011;11841;49.368;20.962;2023-10-31T02:31:15;13.27;;;3.58;;
23338;SDS011;11841;49.368;20.962;2023-10-31T02:34:01;8.48;;;2.83;;
23338;SDS011;11841;49.368;20.962;2023-10-31T02:36:46;5.80;;;2.78;;
23338;SDS011;11841;49.368;20.962;2023-10-31T02:39:32;9.88;;;3.00;;
23338;SDS011;11841;49.368;20.962;2023-10-31T02:42:18;11.48;;;3.67;;
23338;SDS011;11841;49.368;20.962;2023-10-31T02:45:03;9.30;;;3.03;;
23338;SDS011;11841;49.368;20.962;2023-10-31T02:47:49;9.07;;;3.15;;
23338;SDS011;11841;49.368;20.962;2023-10-31T02:50:35;8.32;;;3.30;;
23338;SDS011;11841;49.368;20.962;2023-10-31T02:53:20;10.27;;;4.05;;
23338;SDS011;11841;49.368;20.962;2023-10-31T02:56:06;10.98;;;4.13;;
23338;SDS011;11841;49.368;20.962;2023-10-31T02:58:52;9.82;;;3.28;;
23338;SDS011;11841;49.368;20.962;2023-10-31T03:01:37;8.30;;;3.13;;
23338;SDS011;11841;49.368;20.962;2023-10-31T03:04:23;5.28;;;2.97;;
23338;SDS011;11841;49.368;20.962;2023-10-31T03:07:09;6.68;;;2.75;;
23338;SDS011;11841;49.368;20.962;2023-10-31T03:09:54;8.88;;;2.80;;
23338;SDS011;11841;49.368;20.962;2023-10-31T03:12:39;11.75;;;3.40;;
23338;SDS011;11841;49.368;20.962;2023-10-31T03:15:25;9.15;;;2.55;;
23338;SDS011;11841;49.368;20.962;2023-10-31T03:18:10;13.65;;;2.67;;
23338;SDS011;11841;49.368;20.962;2023-10-31T03:20:56;5.57;;;3.15;;
23338;SDS011;11841;49.368;20.962;2023-10-31T03:23:42;7.90;;;2.78;;
23338;SDS011;11841;49.368;20.962;2023-10-31T03:26:28;6.93;;;2.78;;
23338;SDS011;11841;49.368;20.962;2023-10-31T03:29:14;11.27;;;3.10;;
23338;SDS011;11841;49.368;20.962;2023-10-31T03:31:59;8.63;;;3.17;;
23338;SDS011;11841;49.368;20.962;2023-10-31T03:34:45;6.72;;;2.70;;
23338;SDS011;11841;49.368;20.962;2023-10-31T03:37:30;12.27;;;2.88;;
23338;SDS011;11841;49.368;20.962;2023-10-31T03:40:16;10.90;;;3.33;;
23338;SDS011;11841;49.368;20.962;2023-10-31T03:43:01;7.90;;;3.30;;
23338;SDS011;11841;49.368;20.962;2023-10-31T03:45:46;8.10;;;3.13;;
23338;SDS011;11841;49.368;20.962;2023-10-31T03:48:32;10.50;;;3.08;;
23338;SDS011;11841;49.368;20.962;2023-10-31T03:51:18;9.07;;;2.97;;
23338;SDS011;11841;49.368;20.962;2023-10-31T03:54:03;15.20;;;3.65;;
23338;SDS011;11841;49.368;20.962;2023-10-31T03:56:49;5.00;;;3.13;;
23338;SDS011;11841;49.368;20.962;2023-10-31T03:59:36;3.58;;;2.30;;
23338;SDS011;11841;49.368;20.962;2023-10-31T04:02:22;7.00;;;3.80;;
23338;SDS011;11841;49.368;20.962;2023-10-31T04:05:08;7.13;;;2.65;;
23338;SDS011;11841;49.368;20.962;2023-10-31T04:07:53;5.57;;;2.50;;
23338;SDS011;11841;49.368;20.962;2023-10-31T04:10:39;6.13;;;3.08;;
23338;SDS011;11841;49.368;20.962;2023-10-31T04:13:24;10.10;;;2.95;;
23338;SDS011;11841;49.368;20.962;2023-10-31T04:16:09;7.05;;;2.85;;
23338;SDS011;11841;49.368;20.962;2023-10-31T04:18:55;6.85;;;2.72;;
23338;SDS011;11841;49.368;20.962;2023-10-31T04:21:40;3.78;;;2.45;;
23338;SDS011;11841;49.368;20.962;2023-10-31T04:24:25;11.48;;;3.03;;
23338;SDS011;11841;49.368;20.962;2023-10-31T04:27:11;7.30;;;2.70;;
23338;SDS011;11841;49.368;20.962;2023-10-31T04:29:56;4.47;;;2.45;;
23338;SDS011;11841;49.368;20.962;2023-10-31T04:32:43;8.35;;;2.78;;
23338;SDS011;11841;49.368;20.962;2023-10-31T04:35:28;5.93;;;2.72;;
23338;SDS011;11841;49.368;20.962;2023-10-31T04:38:14;8.45;;;2.92;;
23338;SDS011;11841;49.368;20.962;2023-10-31T04:40:59;8.60;;;3.85;;
23338;SDS011;11841;49.368;20.962;2023-10-31T04:43:45;6.70;;;2.85;;
23338;SDS011;11841;49.368;20.962;2023-10-31T04:46:30;8.43;;;2.90;;
23338;SDS011;11841;49.368;20.962;2023-10-31T04:49:16;8.70;;;2.78;;
23338;SDS011;11841;49.368;20.962;2023-10-31T04:52:01;6.68;;;2.80;;
23338;SDS011;11841;49.368;20.962;2023-10-31T04:54:46;8.20;;;2.95;;
23338;SDS011;11841;49.368;20.962;2023-10-31T04:57:32;3.83;;;2.35;;
23338;SDS011;11841;49.368;20.962;2023-10-31T05:00:17;10.25;;;2.90;;
23338;SDS011;11841;49.368;20.962;2023-10-31T05:03:03;7.97;;;2.70;;
23338;SDS011;11841;49.368;20.962;2023-10-31T05:05:48;5.47;;;2.65;;
23338;SDS011;11841;49.368;20.962;2023-10-31T05:08:34;11.48;;;2.78;;
23338;SDS011;11841;49.368;20.962;2023-10-31T05:11:19;5.45;;;2.03;;
23338;SDS011;11841;49.368;20.962;2023-10-31T05:14:07;4.70;;;2.50;;
23338;SDS011;11841;49.368;20.962;2023-10-31T05:16:54;6.30;;;2.40;;
23338;SDS011;11841;49.368;20.962;2023-10-31T05:19:39;5.50;;;2.30;;
23338;SDS011;11841;49.368;20.962;2023-10-31T05:22:25;5.35;;;2.03;;
23338;SDS011;11841;49.368;20.962;2023-10-31T05:25:10;8.55;;;2.22;;
23338;SDS011;11841;49.368;20.962;2023-10-31T05:27:55;4.45;;;2.08;;
23338;SDS011;11841;49.368;20.962;2023-10-31T05:30:41;6.95;;;2.25;;
23338;SDS011;11841;49.368;20.962;2023-10-31T05:33:26;6.07;;;2.35;;
23338;SDS011;11841;49.368;20.962;2023-10-31T05:36:18;4.05;;;1.98;;
23338;SDS011;11841;49.368;20.962;2023-10-31T05:39:07;5.43;;;2.33;;
23338;SDS011;11841;49.368;20.962;2023-10-31T05:41:53;5.07;;;2.58;;
23338;SDS011;11841;49.368;20.962;2023-10-31T05:44:38;5.22;;;2.33;;
23338;SDS011;11841;49.368;20.962;2023-10-31T05:47:24;4.45;;;2.15;;
23338;SDS011;11841;49.368;20.962;2023-10-31T05:50:09;3.00;;;1.88;;
23338;SDS011;11841;49.368;20.962;2023-10-31T05:52:55;7.68;;;2.85;;
23338;SDS011;11841;49.368;20.962;2023-10-31T05:55:40;5.35;;;2.00;;
23338;SDS011;11841;49.368;20.962;2023-10-31T05:58:26;6.47;;;2.88;;
23338;SDS011;11841;49.368;20.962;2023-10-31T06:01:11;5.45;;;2.55;;
23338;SDS011;11841;49.368;20.962;2023-10-31T06:03:56;4.25;;;2.08;;
23338;SDS011;11841;49.368;20.962;2023-10-31T06:06:42;3.25;;;2.08;;
23338;SDS011;11841;49.368;20.962;2023-10-31T06:09:27;3.50;;;2.08;;
23338;SDS011;11841;49.368;20.962;2023-10-31T06:12:13;8.13;;;2.53;;
23338;SDS011;11841;49.368;20.962;2023-10-31T06:14:58;8.68;;;2.42;;
23338;SDS011;11841;49.368;20.962;2023-10-31T06:17:44;6.00;;;2.65;;
23338;SDS011;11841;49.368;20.962;2023-10-31T06:20:29;4.80;;;2.08;;
23338;SDS011;11841;49.368;20.962;2023-10-31T06:23:14;5.20;;;2.33;;
23338;SDS011;11841;49.368;20.962;2023-10-31T06:26:00;3.50;;;2.05;;
23338;SDS011;11841;49.368;20.962;2023-10-31T06:28:45;5.55;;;2.30;;
23338;SDS011;11841;49.368;20.962;2023-10-31T06:31:47;6.80;;;3.05;;
23338;SDS011;11841;49.368;20.962;2023-10-31T06:34:32;6.70;;;2.42;;
23338;SDS011;11841;49.368;20.962;2023-10-31T06:37:19;6.20;;;2.30;;
23338;SDS011;11841;49.368;20.962;2023-10-31T06:40:04;5.80;;;2.53;;
23338;SDS011;11841;49.368;20.962;2023-10-31T06:42:50;6.30;;;2.80;;
23338;SDS011;11841;49.368;20.962;2023-10-31T06:45:36;7.13;;;2.78;;
23338;SDS011;11841;49.368;20.962;2023-10-31T06:48:21;5.43;;;2.30;;
23338;SDS011;11841;49.368;20.962;2023-10-31T06:51:06;4.38;;;2.70;;
23338;SDS011;11841;49.368;20.962;2023-10-31T06:53:51;6.00;;;2.55;;
23338;SDS011;11841;49.368;20.962;2023-10-31T06:56:36;2.63;;;2.00;;
23338;SDS011;11841;49.368;20.962;2023-10-31T06:59:22;5.38;;;2.20;;
23338;SDS011;11841;49.368;20.962;2023-10-31T07:02:07;5.18;;;2.47;;
23338;SDS011;11841;49.368;20.962;2023-10-31T07:04:53;8.57;;;3.83;;
23338;SDS011;11841;49.368;20.962;2023-10-31T07:07:39;8.50;;;2.60;;
23338;SDS011;11841;49.368;20.962;2023-10-31T07:10:24;7.13;;;2.25;;
23338;SDS011;11841;49.368;20.962;2023-10-31T07:13:10;3.95;;;2.13;;
23338;SDS011;11841;49.368;20.962;2023-10-31T07:15:55;6.00;;;3.88;;
23338;SDS011;11841;49.368;20.962;2023-10-31T07:18:40;6.22;;;3.40;;
23338;SDS011;11841;49.368;20.962;2023-10-31T07:21:26;8.90;;;3.05;;
23338;SDS011;11841;49.368;20.962;2023-10-31T07:24:11;5.03;;;2.85;;
23338;SDS011;11841;49.368;20.962;2023-10-31T07:26:56;4.55;;;2.20;;
23338;SDS011;11841;49.368;20.962;2023-10-31T07:29:41;8.52;;;2.63;;
23338;SDS011;11841;49.368;20.962;2023-10-31T07:32:27;9.65;;;4.45;;
23338;SDS011;11841;49.368;20.962;2023-10-31T07:35:12;21.13;;;10.95;;
23338;SDS011;11841;49.368;20.962;2023-10-31T07:37:58;19.92;;;7.63;;
23338;SDS011;11841;49.368;20.962;2023-10-31T07:40:43;9.25;;;4.25;;
23338;SDS011;11841;49.368;20.962;2023-10-31T07:43:29;18.60;;;8.10;;
23338;SDS011;11841;49.368;20.962;2023-10-31T07:46:14;27.23;;;13.05;;
23338;SDS011;11841;49.368;20.962;2023-10-31T07:48:59;19.38;;;9.20;;
23338;SDS011;11841;49.368;20.962;2023-10-31T07:51:45;30.70;;;15.05;;
23338;SDS011;11841;49.368;20.962;2023-10-31T07:54:32;35.15;;;16.63;;
23338;SDS011;11841;49.368;20.962;2023-10-31T07:57:18;13.20;;;6.45;;
23338;SDS011;11841;49.368;20.962;2023-10-31T08:00:04;6.63;;;4.25;;
23338;SDS011;11841;49.368;20.962;2023-10-31T08:02:56;19.30;;;9.40;;
23338;SDS011;11841;49.368;20.962;2023-10-31T08:05:42;16.40;;;7.50;;
23338;SDS011;11841;49.368;20.962;2023-10-31T08:08:27;15.00;;;7.38;;
23338;SDS011;11841;49.368;20.962;2023-10-31T08:11:12;9.93;;;4.82;;
23338;SDS011;11841;49.368;20.962;2023-10-31T08:13:58;11.30;;;3.75;;
23338;SDS011;11841;49.368;20.962;2023-10-31T08:16:44;12.55;;;3.58;;
23338;SDS011;11841;49.368;20.962;2023-10-31T08:19:29;2.88;;;2.40;;
23338;SDS011;11841;49.368;20.962;2023-10-31T08:22:14;6.20;;;2.40;;
23338;SDS011;11841;49.368;20.962;2023-10-31T08:25:01;3.53;;;2.08;;
23338;SDS011;11841;49.368;20.962;2023-10-31T08:27:46;3.90;;;2.10;;
23338;SDS011;11841;49.368;20.962;2023-10-31T08:30:32;2.75;;;1.88;;
23338;SDS011;11841;49.368;20.962;2023-10-31T08:33:18;6.88;;;2.22;;
23338;SDS011;11841;49.368;20.962;2023-10-31T08:36:03;5.20;;;1.80;;
23338;SDS011;11841;49.368;20.962;2023-10-31T08:38:51;4.93;;;2.00;;
23338;SDS011;11841;49.368;20.962;2023-10-31T08:41:37;4.82;;;1.92;;
23338;SDS011;11841;49.368;20.962;2023-10-31T08:44:24;3.22;;;1.92;;
23338;SDS011;11841;49.368;20.962;2023-10-31T08:47:10;4.07;;;2.13;;
23338;SDS011;11841;49.368;20.962;2023-10-31T08:49:57;6.72;;;2.63;;
23338;SDS011;11841;49.368;20.962;2023-10-31T08:52:43;7.38;;;2.10;;
23338;SDS011;11841;49.368;20.962;2023-10-31T08:55:28;4.82;;;1.60;;
23338;SDS011;11841;49.368;20.962;2023-10-31T08:58:13;5.28;;;2.10;;
23338;SDS011;11841;49.368;20.962;2023-10-31T09:00:59;5.93;;;2.10;;
23338;SDS011;11841;49.368;20.962;2023-10-31T09:03:44;4.30;;;1.83;;
23338;SDS011;11841;49.368;20.962;2023-10-31T09:06:30;3.53;;;1.70;;
23338;SDS011;11841;49.368;20.962;2023-10-31T09:09:15;5.32;;;2.45;;
23338;SDS011;11841;49.368;20.962;2023-10-31T09:12:01;8.88;;;2.08;;
23338;SDS011;11841;49.368;20.962;2023-10-31T09:14:46;4.97;;;1.85;;
23338;SDS011;11841;49.368;20.962;2023-10-31T09:17:31;9.93;;;1.80;;
23338;SDS011;11841;49.368;20.962;2023-10-31T09:20:17;7.60;;;1.90;;
23338;SDS011;11841;49.368;20.962;2023-10-31T09:23:02;6.78;;;2.15;;
23338;SDS011;11841;49.368;20.962;2023-10-31T09:25:48;6.30;;;2.00;;
23338;SDS011;11841;49.368;20.962;2023-10-31T09:28:33;4.38;;;2.47;;
23338;SDS011;11841;49.368;20.962;2023-10-31T09:31:18;4.47;;;2.00;;
23338;SDS011;11841;49.368;20.962;2023-10-31T09:34:04;5.32;;;2.78;;
23338;SDS011;11841;49.368;20.962;2023-10-31T09:36:50;6.32;;;3.33;;
23338;SDS011;11841;49.368;20.962;2023-10-31T09:39:35;6.22;;;2.55;;
23338;SDS011;11841;49.368;20.962;2023-10-31T09:42:21;7.10;;;2.65;;
23338;SDS011;11841;49.368;20.962;2023-10-31T09:45:06;6.65;;;1.75;;
23338;SDS011;11841;49.368;20.962;2023-10-31T09:47:52;5.70;;;2.65;;
23338;SDS011;11841;49.368;20.962;2023-10-31T09:50:38;10.40;;;2.95;;
23338;SDS011;11841;49.368;20.962;2023-10-31T09:53:24;6.63;;;2.22;;
23338;SDS011;11841;49.368;20.962;2023-10-31T09:56:09;7.32;;;2.47;;
23338;SDS011;11841;49.368;20.962;2023-10-31T09:58:55;5.78;;;2.58;;
23338;SDS011;11841;49.368;20.962;2023-10-31T10:01:40;3.50;;;2.05;;
23338;SDS011;11841;49.368;20.962;2023-10-31T10:04:26;5.80;;;2.28;;
23338;SDS011;11841;49.368;20.962;2023-10-31T10:07:16;7.45;;;2.38;;
23338;SDS011;11841;49.368;20.962;2023-10-31T10:10:02;2.80;;;1.88;;
23338;SDS011;11841;49.368;20.962;2023-10-31T10:12:48;3.83;;;1.95;;
23338;SDS011;11841;49.368;20.962;2023-10-31T10:15:43;5.75;;;2.38;;
23338;SDS011;11841;49.368;20.962;2023-10-31T10:18:35;6.85;;;2.22;;
23338;SDS011;11841;49.368;20.962;2023-10-31T10:21:24;5.95;;;2.10;;
23338;SDS011;11841;49.368;20.962;2023-10-31T10:24:09;8.05;;;2.42;;
23338;SDS011;11841;49.368;20.962;2023-10-31T10:26:55;11.02;;;2.08;;
23338;SDS011;11841;49.368;20.962;2023-10-31T10:29:40;8.38;;;2.65;;
23338;SDS011;11841;49.368;20.962;2023-10-31T10:32:26;6.85;;;2.08;;
23338;SDS011;11841;49.368;20.962;2023-10-31T10:35:11;6.57;;;1.92;;
23338;SDS011;11841;49.368;20.962;2023-10-31T10:37:57;5.35;;;2.75;;
23338;SDS011;11841;49.368;20.962;2023-10-31T10:40:47;4.25;;;2.00;;
23338;SDS011;11841;49.368;20.962;2023-10-31T10:43:37;4.13;;;1.88;;
23338;SDS011;11841;49.368;20.962;2023-10-31T10:46:24;5.05;;;1.77;;
23338;SDS011;11841;49.368;20.962;2023-10-31T10:49:11;3.38;;;1.60;;
23338;SDS011;11841;49.368;20.962;2023-10-31T10:52:01;7.10;;;2.42;;
23338;SDS011;11841;49.368;20.962;2023-10-31T10:54:56;6.82;;;1.85;;
23338;SDS011;11841;49.368;20.962;2023-10-31T11:00:44;7.97;;;2.15;;
23338;SDS011;11841;49.368;20.962;2023-10-31T11:03:30;7.32;;;2.05;;
23338;SDS011;11841;49.368;20.962;2023-10-31T11:06:17;19.10;;;1.77;;
23338;SDS011;11841;49.368;20.962;2023-10-31T11:09:03;4.10;;;1.90;;
23338;SDS011;11841;49.368;20.962;2023-10-31T11:11:51;4.50;;;1.90;;
23338;SDS011;11841;49.368;20.962;2023-10-31T11:14:38;4.03;;;2.00;;
23338;SDS011;11841;49.368;20.962;2023-10-31T11:17:26;5.07;;;1.92;;
23338;SDS011;11841;49.368;20.962;2023-10-31T11:20:14;2.75;;;1.50;;
23338;SDS011;11841;49.368;20.962;2023-10-31T11:23:00;7.50;;;2.67;;
23338;SDS011;11841;49.368;20.962;2023-10-31T11:25:51;7.93;;;2.10;;
23338;SDS011;11841;49.368;20.962;2023-10-31T11:28:38;4.55;;;1.75;;
23338;SDS011;11841;49.368;20.962;2023-10-31T11:31:24;4.47;;;2.08;;
23338;SDS011;11841;49.368;20.962;2023-10-31T11:34:12;5.28;;;1.48;;
23338;SDS011;11841;49.368;20.962;2023-10-31T11:43:09;6.45;;;1.63;;
23338;SDS011;11841;49.368;20.962;2023-10-31T11:45:56;14.95;;;1.80;;
23338;SDS011;11841;49.368;20.962;2023-10-31T11:48:48;3.55;;;1.90;;
23338;SDS011;11841;49.368;20.962;2023-10-31T11:51:36;7.97;;;2.50;;
23338;SDS011;11841;49.368;20.962;2023-10-31T11:54:21;9.30;;;1.92;;
23338;SDS011;11841;49.368;20.962;2023-10-31T11:57:06;5.38;;;1.98;;
23338;SDS011;11841;49.368;20.962;2023-10-31T11:59:52;2.22;;;1.73;;
23338;SDS011;11841;49.368;20.962;2023-10-31T12:02:37;7.43;;;1.88;;
23338;SDS011;11841;49.368;20.962;2023-10-31T12:05:23;6.38;;;1.52;;
23338;SDS011;11841;49.368;20.962;2023-10-31T12:08:08;7.82;;;2.10;;
23338;SDS011;11841;49.368;20.962;2023-10-31T12:11:02;7.05;;;1.88;;
23338;SDS011;11841;49.368;20.962;2023-10-31T12:16:42;5.70;;;1.90;;
23338;SDS011;11841;49.368;20.962;2023-10-31T12:19:28;2.85;;;1.77;;
23338;SDS011;11841;49.368;20.962;2023-10-31T12:22:14;10.25;;;2.60;;
23338;SDS011;11841;49.368;20.962;2023-10-31T12:25:03;6.57;;;2.22;;
23338;SDS011;11841;49.368;20.962;2023-10-31T12:27:50;4.68;;;1.90;;
23338;SDS011;11841;49.368;20.962;2023-10-31T12:30:36;6.30;;;2.25;;
23338;SDS011;11841;49.368;20.962;2023-10-31T12:33:30;9.45;;;2.53;;
23338;SDS011;11841;49.368;20.962;2023-10-31T12:36:16;8.00;;;2.22;;
23338;SDS011;11841;49.368;20.962;2023-10-31T12:39:02;5.78;;;2.10;;
23338;SDS011;11841;49.368;20.962;2023-10-31T12:41:49;8.27;;;2.47;;
23338;SDS011;11841;49.368;20.962;2023-10-31T12:44:35;8.65;;;2.38;;
23338;SDS011;11841;49.368;20.962;2023-10-31T12:47:21;6.05;;;2.17;;
23338;SDS011;11841;49.368;20.962;2023-10-31T12:52:57;8.13;;;2.00;;
23338;SDS011;11841;49.368;20.962;2023-10-31T12:55:44;4.95;;;2.10;;
23338;SDS011;11841;49.368;20.962;2023-10-31T12:58:30;5.78;;;2.17;;
23338;SDS011;11841;49.368;20.962;2023-10-31T13:01:15;13.13;;;4.10;;
23338;SDS011;11841;49.368;20.962;2023-10-31T13:04:05;6.18;;;2.10;;
23338;SDS011;11841;49.368;20.962;2023-10-31T13:06:58;5.18;;;2.00;;
23338;SDS011;11841;49.368;20.962;2023-10-31T13:09:44;5.15;;;2.47;;
23338;SDS011;11841;49.368;20.962;2023-10-31T13:12:31;5.28;;;2.15;;
23338;SDS011;11841;49.368;20.962;2023-10-31T13:15:17;2.78;;;1.73;;
23338;SDS011;11841;49.368;20.962;2023-10-31T13:18:04;4.75;;;2.33;;
23338;SDS011;11841;49.368;20.962;2023-10-31T13:20:49;6.18;;;2.22;;
23338;SDS011;11841;49.368;20.962;2023-10-31T13:23:35;9.90;;;2.45;;
23338;SDS011;11841;49.368;20.962;2023-10-31T13:26:23;8.87;;;2.10;;
23338;SDS011;11841;49.368;20.962;2023-10-31T13:29:08;6.85;;;1.70;;
23338;SDS011;11841;49.368;20.962;2023-10-31T13:31:53;9.45;;;2.30;;
23338;SDS011;11841;49.368;20.962;2023-10-31T13:34:39;13.57;;;2.65;;
23338;SDS011;11841;49.368;20.962;2023-10-31T13:37:25;9.80;;;1.80;;
23338;SDS011;11841;49.368;20.962;2023-10-31T13:40:10;7.13;;;2.30;;
23338;SDS011;11841;49.368;20.962;2023-10-31T13:42:56;6.28;;;2.38;;
23338;SDS011;11841;49.368;20.962;2023-10-31T13:45:41;6.72;;;1.98;;
23338;SDS011;11841;49.368;20.962;2023-10-31T13:48:26;3.97;;;2.00;;
23338;SDS011;11841;49.368;20.962;2023-10-31T13:51:12;9.23;;;2.55;;
23338;SDS011;11841;49.368;20.962;2023-10-31T13:53:57;6.55;;;3.22;;
23338;SDS011;11841;49.368;20.962;2023-10-31T13:56:42;6.30;;;3.72;;
23338;SDS011;11841;49.368;20.962;2023-10-31T13:59:28;5.68;;;2.78;;
23338;SDS011;11841;49.368;20.962;2023-10-31T14:02:13;6.43;;;2.45;;
23338;SDS011;11841;49.368;20.962;2023-10-31T14:04:59;8.50;;;2.28;;
23338;SDS011;11841;49.368;20.962;2023-10-31T14:07:44;6.63;;;2.13;;
23338;SDS011;11841;49.368;20.962;2023-10-31T14:10:30;9.23;;;2.70;;
23338;SDS011;11841;49.368;20.962;2023-10-31T14:13:16;23.15;;;9.13;;
23338;SDS011;11841;49.368;20.962;2023-10-31T14:16:02;9.90;;;4.15;;
23338;SDS011;11841;49.368;20.962;2023-10-31T14:18:47;8.73;;;2.60;;
23338;SDS011;11841;49.368;20.962;2023-10-31T14:21:33;5.07;;;2.67;;
23338;SDS011;11841;49.368;20.962;2023-10-31T14:24:19;7.22;;;2.53;;
23338;SDS011;11841;49.368;20.962;2023-10-31T14:27:04;6.22;;;2.80;;
23338;SDS011;11841;49.368;20.962;2023-10-31T14:29:49;14.95;;;3.88;;
23338;SDS011;11841;49.368;20.962;2023-10-31T14:32:37;12.13;;;2.47;;
23338;SDS011;11841;49.368;20.962;2023-10-31T14:35:23;6.13;;;2.35;;
23338;SDS011;11841;49.368;20.962;2023-10-31T14:38:08;12.45;;;2.65;;
23338;SDS011;11841;49.368;20.962;2023-10-31T14:40:54;12.07;;;5.70;;
23338;SDS011;11841;49.368;20.962;2023-10-31T14:43:39;8.30;;;2.65;;
23338;SDS011;11841;49.368;20.962;2023-10-31T14:46:24;4.57;;;1.80;;
23338;SDS011;11841;49.368;20.962;2023-10-31T14:49:10;11.82;;;4.20;;
23338;SDS011;11841;49.368;20.962;2023-10-31T14:51:55;14.88;;;3.25;;
23338;SDS011;11841;49.368;20.962;2023-10-31T14:54:41;9.57;;;2.92;;
23338;SDS011;11841;49.368;20.962;2023-10-31T14:57:27;5.93;;;2.70;;
23338;SDS011;11841;49.368;20.962;2023-10-31T15:00:12;5.43;;;2.03;;
23338;SDS011;11841;49.368;20.962;2023-10-31T15:02:59;8.85;;;2.35;;
23338;SDS011;11841;49.368;20.962;2023-10-31T15:05:44;7.28;;;2.17;;
23338;SDS011;11841;49.368;20.962;2023-10-31T15:08:29;4.80;;;2.22;;
23338;SDS011;11841;49.368;20.962;2023-10-31T15:11:15;6.68;;;2.33;;
23338;SDS011;11841;49.368;20.962;2023-10-31T15:14:02;13.48;;;5.65;;
23338;SDS011;11841;49.368;20.962;2023-10-31T15:16:47;18.55;;;6.15;;
23338;SDS011;11841;49.368;20.962;2023-10-31T15:19:33;11.20;;;3.60;;
23338;SDS011;11841;49.368;20.962;2023-10-31T15:22:18;6.32;;;2.75;;
23338;SDS011;11841;49.368;20.962;2023-10-31T15:25:03;3.78;;;2.67;;
23338;SDS011;11841;49.368;20.962;2023-10-31T15:27:49;6.78;;;2.78;;
23338;SDS011;11841;49.368;20.962;2023-10-31T15:30:34;6.63;;;4.18;;
23338;SDS011;11841;49.368;20.962;2023-10-31T15:33:20;3.78;;;3.08;;
23338;SDS011;11841;49.368;20.962;2023-10-31T15:36:05;10.18;;;3.45;;
23338;SDS011;11841;49.368;20.962;2023-10-31T15:38:55;7.78;;;3.20;;
23338;SDS011;11841;49.368;20.962;2023-10-31T15:41:41;15.68;;;4.03;;
23338;SDS011;11841;49.368;20.962;2023-10-31T15:44:26;8.68;;;3.25;;
23338;SDS011;11841;49.368;20.962;2023-10-31T15:47:12;14.45;;;3.33;;
23338;SDS011;11841;49.368;20.962;2023-10-31T15:50:00;12.30;;;3.78;;
23338;SDS011;11841;49.368;20.962;2023-10-31T15:52:45;8.00;;;3.95;;
23338;SDS011;11841;49.368;20.962;2023-10-31T15:55:31;9.63;;;3.45;;
23338;SDS011;11841;49.368;20.962;2023-10-31T15:58:16;8.80;;;3.60;;
23338;SDS011;11841;49.368;20.962;2023-10-31T16:01:03;5.50;;;2.90;;
23338;SDS011;11841;49.368;20.962;2023-10-31T16:03:48;21.77;;;10.73;;
23338;SDS011;11841;49.368;20.962;2023-10-31T16:06:34;8.38;;;5.13;;
23338;SDS011;11841;49.368;20.962;2023-10-31T16:09:21;7.80;;;3.42;;
23338;SDS011;11841;49.368;20.962;2023-10-31T16:12:06;5.38;;;3.28;;
23338;SDS011;11841;49.368;20.962;2023-10-31T16:14:54;5.60;;;3.63;;
23338;SDS011;11841;49.368;20.962;2023-10-31T16:17:39;9.40;;;3.83;;
23338;SDS011;11841;49.368;20.962;2023-10-31T16:20:24;8.52;;;3.20;;
23338;SDS011;11841;49.368;20.962;2023-10-31T16:23:10;4.95;;;2.80;;
23338;SDS011;11841;49.368;20.962;2023-10-31T16:25:55;7.00;;;2.95;;
23338;SDS011;11841;49.368;20.962;2023-10-31T16:28:40;8.05;;;3.13;;
23338;SDS011;11841;49.368;20.962;2023-10-31T16:31:26;14.93;;;3.47;;
23338;SDS011;11841;49.368;20.962;2023-10-31T16:34:11;15.57;;;3.35;;
23338;SDS011;11841;49.368;20.962;2023-10-31T16:36:57;9.30;;;2.22;;